Time;durP1;ratioP1;P1;durP2;ratioP2;P2;SDS_P1;SDS_P2;PMS_P1;PMS_P2;Temp;Humidity;BMP_temperature;BMP_pressure;BME280_temperature;BME280_humidity;BME280_pressure;Samples;Min_cycle;Max_cycle;Signal;HPM_P1;HPM_P2
2023/10/15 00:00:50;;;;;;;1.90;0.50;;;8.20;95.20;;;;;;4937997;29;20396;-83
2023/10/15 00:03:16;;;;;;;3.30;0.73;;;8.20;95.30;;;;;;4955639;29;20503;-83
2023/10/15 00:05:42;;;;;;;3.77;0.60;;;8.20;95.40;;;;;;4938227;29;20399;-83
2023/10/15 00:08:08;;;;;;;2.37;0.50;;;8.20;95.50;;;;;;4955191;29;20035;-83
2023/10/15 00:10:36;;;;;;;4.20;0.90;;;8.20;95.70;;;;;;4955372;29;20400;-83
2023/10/15 00:13:04;;;;;;;3.10;0.43;;;8.20;95.70;;;;;;4937805;29;20038;-83
2023/10/15 00:15:30;;;;;;;2.40;0.50;;;8.20;95.80;;;;;;4955485;29;20102;-83
2023/10/15 00:18:02;;;;;;;4.67;0.50;;;8.20;95.90;;;;;;4958428;29;20035;-83
2023/10/15 00:20:31;;;;;;;2.33;0.43;;;8.20;96.00;;;;;;4959366;29;20031;-82
2023/10/15 00:23:04;;;;;;;3.80;0.40;;;8.20;96.10;;;;;;4959590;29;20062;-83
2023/10/15 00:25:47;;;;;;;1.83;0.30;;;8.30;96.20;;;;;;4955433;29;20171;-83
2023/10/15 00:28:12;;;;;;;1.50;0.50;;;8.30;96.30;;;;;;4954938;29;20063;-83
2023/10/15 00:30:39;;;;;;;2.87;0.60;;;8.30;96.50;;;;;;4954552;29;20071;-82
2023/10/15 00:33:11;;;;;;;4.23;0.40;;;8.40;96.60;;;;;;4937842;29;20514;-83
2023/10/15 00:35:36;;;;;;;2.10;0.40;;;8.30;96.80;;;;;;4955244;29;20082;-83
2023/10/15 00:38:15;;;;;;;4.87;0.60;;;8.40;97.00;;;;;;4954998;29;20035;-82
2023/10/15 00:40:41;;;;;;;2.23;0.40;;;8.40;97.20;;;;;;4937937;29;20046;-83
2023/10/15 00:43:07;;;;;;;2.00;0.40;;;8.30;97.60;;;;;;4954888;29;20035;-82
2023/10/15 00:45:45;;;;;;;1.93;0.53;;;8.30;97.70;;;;;;4954867;29;20484;-83
2023/10/15 00:51:20;;;;;;;3.58;0.50;;;8.20;98.90;;;;;;4912244;29;20420;-84
2023/10/15 00:53:50;;;;;;;4.70;0.80;;;8.20;99.10;;;;;;4954643;29;20088;-84
2023/10/15 00:56:22;;;;;;;3.20;0.60;;;8.20;99.80;;;;;;4954777;29;20036;-84
2023/10/15 01:03:49;;;;;;;3.93;0.50;;;8.10;99.90;;;;;;4955282;29;20027;-83
2023/10/15 01:06:27;;;;;;;2.97;0.70;;;8.00;99.90;;;;;;4953587;29;20042;-84
2023/10/15 01:08:55;;;;;;;4.13;0.50;;;8.00;99.90;;;;;;4937480;29;20031;-83
2023/10/15 01:11:27;;;;;;;3.70;0.67;;;8.00;99.90;;;;;;4956943;28;20368;-82
2023/10/15 01:13:56;;;;;;;6.43;0.80;;;8.00;99.90;;;;;;4957631;29;20044;-84
2023/10/15 01:16:22;;;;;;;2.63;0.60;;;8.00;99.90;;;;;;4958377;29;20043;-83
2023/10/15 01:19:05;;;;;;;4.30;0.50;;;8.10;99.90;;;;;;4958564;29;20036;-83
2023/10/15 01:21:32;;;;;;;1.73;0.50;;;8.00;99.90;;;;;;4941210;29;20067;-84
2023/10/15 01:24:08;;;;;;;5.43;0.50;;;8.00;99.90;;;;;;4958188;29;20035;-84
2023/10/15 01:26:38;;;;;;;1.53;0.40;;;8.10;99.90;;;;;;4958236;29;20118;-83
2023/10/15 01:29:08;;;;;;;2.33;0.60;;;8.10;99.90;;;;;;4958079;29;20534;-84
2023/10/15 01:31:49;;;;;;;3.53;0.50;;;8.00;99.90;;;;;;4958323;29;20050;-84
2023/10/15 01:34:20;;;;;;;2.07;0.40;;;8.10;99.90;;;;;;4958451;29;20535;-83
2023/10/15 01:36:50;;;;;;;2.57;0.40;;;8.10;99.90;;;;;;4940838;29;20415;-84
2023/10/15 01:39:21;;;;;;;2.77;0.40;;;8.10;99.90;;;;;;4958320;29;20027;-83
2023/10/15 01:41:57;;;;;;;3.20;0.40;;;8.00;99.90;;;;;;4957882;29;20416;-84
2023/10/15 01:44:24;;;;;;;1.60;0.47;;;8.00;99.90;;;;;;4958179;29;20380;-82
2023/10/15 01:47:07;;;;;;;2.60;0.57;;;8.00;99.90;;;;;;4958393;29;20031;-82
2023/10/15 01:49:33;;;;;;;3.20;0.60;;;8.00;99.90;;;;;;4940705;29;20468;-82
2023/10/15 01:52:09;;;;;;;2.47;0.40;;;7.90;99.90;;;;;;4957759;29;20042;-84
2023/10/15 01:54:38;;;;;;;3.70;0.70;;;8.00;99.90;;;;;;4958382;29;20039;-84
2023/10/15 01:57:07;;;;;;;3.03;0.50;;;8.00;99.90;;;;;;4956280;29;20042;-82
2023/10/15 01:59:43;;;;;;;4.30;0.60;;;8.00;99.90;;;;;;4958019;29;20044;-84
2023/10/15 02:02:15;;;;;;;5.37;0.60;;;8.00;99.90;;;;;;4957445;29;20043;-83
2023/10/15 02:04:46;;;;;;;5.73;0.70;;;8.00;99.90;;;;;;4957696;29;20043;-82
2023/10/15 02:07:19;;;;;;;3.87;0.73;;;8.00;99.90;;;;;;4957972;29;20047;-83
2023/10/15 02:09:45;;;;;;;5.57;0.90;;;8.00;99.90;;;;;;4941300;29;20039;-83
2023/10/15 02:12:17;;;;;;;3.00;0.60;;;8.00;99.90;;;;;;4956060;29;20035;-83
2023/10/15 02:14:44;;;;;;;3.40;0.50;;;8.00;99.90;;;;;;4957188;29;20039;-83
2023/10/15 02:17:14;;;;;;;4.13;0.50;;;8.10;99.90;;;;;;4957320;29;20431;-83
2023/10/15 02:19:42;;;;;;;3.50;0.60;;;8.10;99.90;;;;;;4957222;29;20074;-83
2023/10/15 02:22:13;;;;;;;3.57;0.70;;;8.00;99.90;;;;;;4956964;28;20039;-84
2023/10/15 02:24:48;;;;;;;3.07;0.53;;;8.10;99.90;;;;;;4957618;29;20037;-83
2023/10/15 02:27:23;;;;;;;3.57;0.70;;;8.10;99.90;;;;;;4957169;29;20035;-83
2023/10/15 02:29:50;;;;;;;2.70;0.60;;;8.10;99.90;;;;;;4939796;29;20558;-83
2023/10/15 02:34:52;;;;;;;2.80;0.50;;;8.10;99.90;;;;;;4957332;29;20027;-83
2023/10/15 02:37:19;;;;;;;3.17;0.50;;;8.20;99.90;;;;;;4957091;29;20043;-82
2023/10/15 02:39:51;;;;;;;2.97;0.50;;;8.20;99.90;;;;;;4956944;29;20039;-82
2023/10/15 02:42:18;;;;;;;2.27;0.50;;;8.20;99.90;;;;;;4956924;29;20043;-82
2023/10/15 02:44:44;;;;;;;2.80;0.40;;;8.20;99.90;;;;;;4956934;29;20091;-83
2023/10/15 02:47:55;;;;;;;2.73;0.37;;;8.20;99.90;;;;;;4957095;29;20423;-82
2023/10/15 02:50:03;;;;;;;1.10;0.30;;;8.20;99.90;;;;;;4943800;29;20394;-82
2023/10/15 02:52:35;;;;;;;1.53;0.40;;;8.20;99.90;;;;;;4956710;29;20069;-82
2023/10/15 02:55:10;;;;;;;2.90;0.73;;;8.20;99.90;;;;;;4956509;29;20035;-82
2023/10/15 02:57:40;;;;;;;1.73;0.40;;;8.20;99.90;;;;;;4956872;29;20081;-81
2023/10/15 03:00:13;;;;;;;3.33;0.40;;;8.20;99.90;;;;;;4956700;29;20039;-81
2023/10/15 03:02:49;;;;;;;0.95;0.28;;;8.20;99.90;;;;;;4957041;29;20558;-82
2023/10/15 03:05:15;;;;;;;1.70;0.40;;;8.20;99.90;;;;;;4956490;29;20098;-81
2023/10/15 03:07:44;;;;;;;2.03;0.30;;;8.10;99.90;;;;;;4956632;29;20403;-81
2023/10/15 03:10:21;;;;;;;3.40;0.30;;;8.10;99.90;;;;;;4956339;29;20040;-81
2023/10/15 03:12:47;;;;;;;1.27;0.30;;;8.10;99.90;;;;;;4938640;29;20496;-82
2023/10/15 03:15:14;;;;;;;2.43;0.43;;;8.10;99.90;;;;;;4956377;29;20091;-81
2023/10/15 03:17:41;;;;;;;2.90;0.70;;;8.10;99.90;;;;;;4956425;29;20035;-82
2023/10/15 03:20:39;;;;;;;4.40;0.40;;;8.10;99.90;;;;;;4956254;29;20039;-81
2023/10/15 03:23:00;;;;;;;3.60;0.40;;;8.10;99.90;;;;;;4955012;29;20067;-81
2023/10/15 03:25:26;;;;;;;2.90;0.40;;;8.20;99.90;;;;;;4938835;29;20507;-81
2023/10/15 03:27:54;;;;;;;1.47;0.40;;;8.10;99.90;;;;;;4955881;29;20134;-81
2023/10/15 03:30:24;;;;;;;2.50;0.40;;;8.10;99.90;;;;;;4956308;29;20119;-81
2023/10/15 03:32:52;;;;;;;1.70;0.60;;;8.20;99.90;;;;;;4955856;28;20094;-82
2023/10/15 03:35:32;;;;;;;1.40;0.40;;;8.20;99.90;;;;;;4955761;29;20035;-82
2023/10/15 03:38:04;;;;;;;1.17;0.30;;;8.10;99.90;;;;;;4955701;29;20039;-82
2023/10/15 03:40:31;;;;;;;1.60;0.40;;;8.10;99.90;;;;;;4955888;29;20035;-81
2023/10/15 03:43:03;;;;;;;1.87;0.60;;;8.10;99.90;;;;;;4956118;29;20035;-81
2023/10/15 03:45:32;;;;;;;1.53;0.40;;;8.10;99.90;;;;;;4955992;29;20463;-81
2023/10/15 03:48:00;;;;;;;4.00;0.50;;;8.10;99.90;;;;;;4955645;29;20039;-81
2023/10/15 03:50:29;;;;;;;1.77;0.40;;;8.10;99.90;;;;;;4955945;29;20066;-82
2023/10/15 03:52:57;;;;;;;2.17;0.50;;;8.10;99.90;;;;;;4955512;29;20039;-81
2023/10/15 03:55:24;;;;;;;2.70;0.60;;;8.10;99.90;;;;;;4955885;29;20055;-81
2023/10/15 03:57:51;;;;;;;4.53;0.50;;;8.10;99.90;;;;;;4956206;29;20043;-81
2023/10/15 04:00:34;;;;;;;1.07;0.37;;;8.10;99.90;;;;;;4955621;29;20161;-82
2023/10/15 04:03:09;;;;;;;2.17;0.40;;;8.10;99.90;;;;;;4955740;29;20043;-81
2023/10/15 04:05:35;;;;;;;3.00;0.50;;;8.10;99.90;;;;;;4938304;29;20055;-81
2023/10/15 04:08:01;;;;;;;3.63;0.93;;;8.20;99.90;;;;;;4955008;29;20455;-80
2023/10/15 04:10:33;;;;;;;3.17;0.50;;;8.20;99.90;;;;;;4955502;29;20097;-80
2023/10/15 04:12:59;;;;;;;1.67;0.40;;;8.20;99.90;;;;;;4955123;29;20032;-80
2023/10/15 04:15:25;;;;;;;5.20;0.70;;;8.20;99.90;;;;;;4938201;29;20031;-82
2023/10/15 04:17:52;;;;;;;3.37;0.40;;;8.20;99.90;;;;;;4955074;29;20393;-81
2023/10/15 04:20:33;;;;;;;1.87;0.40;;;8.20;99.90;;;;;;4955485;29;20042;-81
2023/10/15 04:22:58;;;;;;;3.90;0.40;;;8.10;99.90;;;;;;4955154;29;20027;-82
2023/10/15 04:25:25;;;;;;;1.13;0.30;;;8.10;99.90;;;;;;4956807;29;20043;-83
2023/10/15 04:27:54;;;;;;;2.33;0.40;;;8.10;99.90;;;;;;4960358;29;20051;-82
2023/10/15 04:30:20;;;;;;;2.53;0.40;;;8.10;99.90;;;;;;4959331;29;20091;-82
2023/10/15 04:32:47;;;;;;;1.67;0.40;;;8.10;99.90;;;;;;4955140;29;20063;-82
2023/10/15 04:35:25;;;;;;;0.83;0.30;;;8.10;99.90;;;;;;4955260;29;20514;-82
2023/10/15 04:37:52;;;;;;;0.93;0.40;;;8.10;99.90;;;;;;4955842;28;20106;-82
2023/10/15 04:40:23;;;;;;;2.77;0.30;;;8.10;99.90;;;;;;4955349;28;20039;-82
2023/10/15 04:42:49;;;;;;;1.57;0.20;;;8.10;99.90;;;;;;4969297;28;20045;-81
2023/10/15 04:48:01;;;;;;;1.07;0.30;;;8.10;99.90;;;;;;4973947;28;20034;-81
2023/10/15 04:50:29;;;;;;;1.60;0.33;;;8.10;99.90;;;;;;4973835;28;20034;-82
2023/10/15 04:53:03;;;;;;;1.60;0.40;;;8.10;99.90;;;;;;4974280;28;20031;-82
2023/10/15 04:55:29;;;;;;;2.53;0.47;;;8.00;99.90;;;;;;4974143;28;20039;-81
2023/10/15 04:57:55;;;;;;;1.20;0.30;;;8.00;99.90;;;;;;4947678;28;20031;-81
2023/10/15 05:00:25;;;;;;;2.10;0.40;;;8.00;99.90;;;;;;4937479;29;20042;-81
2023/10/15 05:02:52;;;;;;;1.20;0.50;;;7.90;99.90;;;;;;4937263;29;20046;-81
2023/10/15 05:05:17;;;;;;;2.20;0.33;;;7.90;99.90;;;;;;4954650;29;20046;-82
2023/10/15 05:07:43;;;;;;;1.10;0.40;;;7.90;99.90;;;;;;4954793;29;20031;-81
2023/10/15 05:10:09;;;;;;;4.10;0.40;;;7.90;99.90;;;;;;4937506;29;20031;-82
2023/10/15 05:12:34;;;;;;;1.77;0.30;;;7.90;99.90;;;;;;4937000;29;20076;-83
2023/10/15 05:15:00;;;;;;;1.30;0.30;;;7.90;99.90;;;;;;4954474;29;20047;-82
2023/10/15 05:17:26;;;;;;;0.70;0.30;;;7.90;99.90;;;;;;4954912;29;20047;-81
2023/10/15 05:19:54;;;;;;;3.93;0.47;;;7.90;99.90;;;;;;4954571;29;20046;-81
2023/10/15 05:22:21;;;;;;;0.73;0.30;;;7.90;99.90;;;;;;4954622;29;20484;-81
2023/10/15 05:24:46;;;;;;;3.60;0.50;;;7.90;99.90;;;;;;4954285;29;20035;-81
2023/10/15 05:27:12;;;;;;;1.90;0.40;;;7.90;99.90;;;;;;4954513;29;20130;-81
2023/10/15 05:29:41;;;;;;;4.60;0.50;;;7.80;99.90;;;;;;4954836;29;20050;-81
2023/10/15 05:32:06;;;;;;;5.27;0.50;;;7.80;99.90;;;;;;4954999;29;20031;-81
2023/10/15 05:34:32;;;;;;;3.33;1.00;;;7.70;99.90;;;;;;4954241;29;20043;-81
2023/10/15 05:36:59;;;;;;;4.37;0.40;;;7.70;99.90;;;;;;4954363;29;20039;-81
2023/10/15 05:39:24;;;;;;;13.53;1.33;;;7.70;99.90;;;;;;4954258;29;20495;-81
2023/10/15 05:41:52;;;;;;;1.40;0.30;;;7.60;99.90;;;;;;4954352;29;20053;-81
2023/10/15 05:44:20;;;;;;;0.93;0.33;;;7.60;99.90;;;;;;4954381;29;20395;-82
2023/10/15 05:46:46;;;;;;;1.00;0.30;;;7.50;99.90;;;;;;4955055;29;20031;-82
2023/10/15 05:49:12;;;;;;;1.57;0.40;;;7.50;99.90;;;;;;4954033;29;20095;-81
2023/10/15 05:51:38;;;;;;;1.63;0.40;;;7.50;99.90;;;;;;4953959;29;20099;-79
2023/10/15 05:54:04;;;;;;;2.30;0.40;;;7.40;99.90;;;;;;4954788;29;20480;-81
2023/10/15 05:56:30;;;;;;;3.53;0.60;;;7.40;99.90;;;;;;4954745;28;20035;-82
2023/10/15 05:58:57;;;;;;;2.70;0.53;;;7.40;99.90;;;;;;4957831;29;20427;-82
2023/10/15 06:01:23;;;;;;;1.33;0.43;;;7.40;99.90;;;;;;4957650;29;20039;-82
2023/10/15 06:03:49;;;;;;;2.50;0.50;;;7.40;99.90;;;;;;4957156;29;20051;-82
2023/10/15 06:06:15;;;;;;;3.80;0.50;;;7.40;99.90;;;;;;4957728;29;20036;-81
2023/10/15 06:08:41;;;;;;;2.30;0.50;;;7.50;99.90;;;;;;4957732;29;20395;-82
2023/10/15 06:11:07;;;;;;;4.47;0.40;;;7.40;99.90;;;;;;4957818;29;20133;-82
2023/10/15 06:13:32;;;;;;;3.57;0.40;;;7.40;99.90;;;;;;4940193;29;20039;-83
2023/10/15 06:16:00;;;;;;;4.83;1.00;;;7.40;99.90;;;;;;4957708;29;20039;-82
2023/10/15 06:18:26;;;;;;;1.40;0.30;;;7.50;99.90;;;;;;4956983;29;20035;-81
2023/10/15 06:20:51;;;;;;;0.93;0.30;;;7.40;99.90;;;;;;4957192;29;20047;-81
2023/10/15 06:23:18;;;;;;;1.23;0.37;;;7.40;99.90;;;;;;4940153;29;20035;-82
2023/10/15 06:25:43;;;;;;;2.67;0.70;;;7.40;99.90;;;;;;4957349;29;20035;-81
2023/10/15 06:28:13;;;;;;;1.93;0.60;;;7.40;99.90;;;;;;4957215;29;20097;-81
2023/10/15 06:30:44;;;;;;;3.27;0.80;;;7.40;99.90;;;;;;4957110;29;20031;-82
2023/10/15 06:33:10;;;;;;;2.27;0.60;;;7.40;99.90;;;;;;4956782;29;20031;-80
2023/10/15 06:35:37;;;;;;;4.00;0.63;;;7.40;99.90;;;;;;4947750;28;21221;-83
2023/10/15 06:38:05;;;;;;;2.70;0.63;;;7.30;99.90;;;;;;4960040;28;20034;-80
2023/10/15 06:40:31;;;;;;;2.80;0.50;;;7.30;99.90;;;;;;4956880;29;20039;-81
2023/10/15 06:43:00;;;;;;;3.17;0.40;;;7.30;99.90;;;;;;4957769;29;20031;-79
2023/10/15 06:45:27;;;;;;;1.03;0.37;;;7.30;99.90;;;;;;4957004;29;20040;-80
2023/10/15 06:47:53;;;;;;;3.90;0.50;;;7.40;99.90;;;;;;4956476;29;20043;-79
2023/10/15 06:50:19;;;;;;;3.97;0.43;;;7.40;99.90;;;;;;4956980;29;20031;-81
2023/10/15 06:52:46;;;;;;;3.57;0.70;;;7.40;99.90;;;;;;4939903;29;20027;-79
2023/10/15 06:55:13;;;;;;;4.43;0.80;;;7.50;99.90;;;;;;4964324;28;20031;-81
2023/10/15 06:57:39;;;;;;;5.27;0.50;;;7.50;99.90;;;;;;4973039;28;20030;-80
2023/10/15 07:00:10;;;;;;;2.77;0.50;;;7.60;99.90;;;;;;4976015;28;20034;-80
2023/10/15 07:02:36;;;;;;;4.70;0.80;;;7.60;99.90;;;;;;4976015;28;20558;-79
2023/10/15 07:05:03;;;;;;;2.40;0.53;;;7.60;99.90;;;;;;4976023;28;20047;-81
2023/10/15 07:07:30;;;;;;;3.10;0.40;;;7.70;99.90;;;;;;4975765;28;20034;-80
2023/10/15 07:09:56;;;;;;;2.40;0.40;;;7.70;99.90;;;;;;4975142;28;20034;-80
2023/10/15 07:12:22;;;;;;;1.87;0.50;;;7.80;99.90;;;;;;4958867;28;20035;-80
2023/10/15 07:14:48;;;;;;;2.50;0.50;;;7.80;99.90;;;;;;4975046;28;20369;-81
2023/10/15 07:17:14;;;;;;;2.40;0.70;;;7.80;99.90;;;;;;4975588;28;20033;-79
2023/10/15 07:19:40;;;;;;;2.87;0.60;;;7.80;99.90;;;;;;4975718;28;20019;-79
2023/10/15 07:22:06;;;;;;;5.77;0.80;;;7.90;99.90;;;;;;4975843;28;20039;-80
2023/10/15 07:24:33;;;;;;;2.60;0.60;;;7.90;99.90;;;;;;4975361;28;20041;-80
2023/10/15 07:27:00;;;;;;;5.93;0.80;;;8.00;99.90;;;;;;4975393;28;20034;-81
2023/10/15 07:29:28;;;;;;;3.40;0.87;;;8.00;99.90;;;;;;4975462;28;20042;-80
2023/10/15 07:31:54;;;;;;;4.13;1.07;;;8.10;99.90;;;;;;4975246;28;20038;-81
2023/10/15 07:34:22;;;;;;;4.80;1.43;;;8.10;99.90;;;;;;4975920;28;20041;-80
2023/10/15 07:36:50;;;;;;;3.90;0.83;;;8.20;99.90;;;;;;4958408;28;20031;-80
2023/10/15 07:39:17;;;;;;;5.60;1.10;;;8.30;99.90;;;;;;4958160;28;20031;-82
2023/10/15 07:41:43;;;;;;;2.90;1.00;;;8.30;99.90;;;;;;4975366;28;20122;-82
2023/10/15 07:44:10;;;;;;;3.93;1.00;;;8.30;99.90;;;;;;4974943;28;20440;-80
2023/10/15 07:46:36;;;;;;;3.57;1.17;;;8.30;99.90;;;;;;4975395;28;20098;-81
2023/10/15 07:49:03;;;;;;;3.97;0.80;;;8.30;99.90;;;;;;4975160;28;20499;-80
2023/10/15 07:51:29;;;;;;;4.43;0.70;;;8.40;99.90;;;;;;4975466;28;20103;-80
2023/10/15 07:53:54;;;;;;;3.37;0.90;;;8.40;99.90;;;;;;4975042;28;20035;-81
2023/10/15 07:56:21;;;;;;;3.93;0.77;;;8.40;99.90;;;;;;4971800;28;20039;-83
2023/10/15 07:58:48;;;;;;;1.73;0.50;;;8.40;99.90;;;;;;4964184;28;20034;-83
2023/10/15 08:01:14;;;;;;;3.30;0.53;;;8.40;99.90;;;;;;4965766;28;20439;-81
2023/10/15 08:03:40;;;;;;;3.20;0.50;;;8.40;99.90;;;;;;4964492;28;20035;-82
2023/10/15 08:06:07;;;;;;;3.80;0.80;;;8.40;99.90;;;;;;4964845;28;20019;-81
2023/10/15 08:08:33;;;;;;;3.43;0.60;;;8.40;99.90;;;;;;4965853;28;20102;-82
2023/10/15 08:10:59;;;;;;;4.57;0.77;;;8.40;99.90;;;;;;4964037;28;20118;-82
2023/10/15 08:13:24;;;;;;;4.20;0.40;;;8.40;99.90;;;;;;4964071;28;20503;-83
2023/10/15 08:15:50;;;;;;;2.40;0.67;;;8.50;99.90;;;;;;4965426;28;20110;-80
2023/10/15 08:18:16;;;;;;;2.17;0.70;;;8.50;99.90;;;;;;4963290;28;20030;-81
2023/10/15 08:20:41;;;;;;;4.00;0.93;;;8.60;99.90;;;;;;4960677;28;20051;-80
2023/10/15 08:23:07;;;;;;;1.83;0.30;;;8.60;99.90;;;;;;4956957;29;20496;-81
2023/10/15 08:25:33;;;;;;;3.43;0.80;;;8.60;99.90;;;;;;4957782;29;20042;-81
2023/10/15 08:27:58;;;;;;;3.83;0.63;;;8.60;99.90;;;;;;4957179;29;20126;-80
2023/10/15 08:30:24;;;;;;;1.47;0.33;;;8.70;99.90;;;;;;4956862;29;20099;-80
2023/10/15 08:32:50;;;;;;;3.07;0.50;;;8.70;99.90;;;;;;4956185;29;20042;-80
2023/10/15 08:35:16;;;;;;;5.77;0.60;;;8.70;99.90;;;;;;4956852;29;20039;-83
2023/10/15 08:37:45;;;;;;;2.07;0.50;;;8.70;99.90;;;;;;4955851;29;20063;-80
2023/10/15 08:40:18;;;;;;;3.10;0.60;;;8.80;99.90;;;;;;4955268;29;20046;-79
2023/10/15 08:43:02;;;;;;;3.83;0.60;;;8.80;99.90;;;;;;4954808;29;20039;-79
2023/10/15 08:45:29;;;;;;;2.50;0.47;;;8.80;99.90;;;;;;4937568;29;20038;-80
2023/10/15 08:47:56;;;;;;;4.43;0.63;;;8.90;99.90;;;;;;4954875;29;20039;-81
2023/10/15 08:50:22;;;;;;;3.70;0.40;;;8.90;99.90;;;;;;4954819;29;20035;-80
2023/10/15 08:52:54;;;;;;;1.90;0.33;;;9.00;99.90;;;;;;4954787;29;20038;-81
2023/10/15 08:55:22;;;;;;;1.27;0.30;;;9.10;99.90;;;;;;4937282;29;20035;-81
2023/10/15 08:57:54;;;;;;;3.40;0.43;;;9.20;99.90;;;;;;4958455;28;20114;-78
2023/10/15 09:00:28;;;;;;;3.10;0.60;;;9.40;99.90;;;;;;4974566;28;20050;-78
2023/10/15 09:03:00;;;;;;;2.40;0.40;;;9.50;99.90;;;;;;4960577;28;20042;-80
2023/10/15 09:05:30;;;;;;;2.30;0.50;;;9.50;99.90;;;;;;4972950;28;20031;-81
2023/10/15 09:08:07;;;;;;;0.73;0.30;;;9.60;99.90;;;;;;4972599;28;20023;-81
2023/10/15 09:10:35;;;;;;;2.70;0.30;;;9.60;99.90;;;;;;4971088;28;20042;-79
2023/10/15 09:13:01;;;;;;;1.93;0.40;;;9.70;99.90;;;;;;4973028;28;20064;-80
2023/10/15 09:15:29;;;;;;;1.90;0.40;;;9.70;99.90;;;;;;4956289;28;20113;-80
2023/10/15 09:17:56;;;;;;;2.43;0.20;;;9.80;99.90;;;;;;4973604;28;20502;-80
2023/10/15 09:20:27;;;;;;;4.27;0.60;;;9.80;99.90;;;;;;4956257;28;20053;-80
2023/10/15 09:22:59;;;;;;;3.57;0.40;;;9.90;99.90;;;;;;4972055;28;20039;-82
2023/10/15 09:25:29;;;;;;;1.63;0.30;;;9.90;99.90;;;;;;4954496;28;20380;-80
2023/10/15 09:27:56;;;;;;;2.78;0.30;;;10.10;99.90;;;;;;4955066;28;20042;-80
2023/10/15 09:30:26;;;;;;;1.92;0.30;;;10.20;99.90;;;;;;4973535;28;20031;-81
2023/10/15 09:32:52;;;;;;;1.85;0.30;;;10.30;99.90;;;;;;4975837;28;20058;-81
2023/10/15 09:35:22;;;;;;;1.15;0.30;;;10.40;99.90;;;;;;4977494;28;20035;-79
2023/10/15 09:37:48;;;;;;;3.10;0.22;;;10.40;99.90;;;;;;4978065;28;20089;-79
2023/10/15 09:40:20;;;;;;;2.40;0.30;;;10.40;98.90;;;;;;4977598;28;20067;-79
2023/10/15 09:42:55;;;;;;;2.50;0.40;;;10.40;98.60;;;;;;4977975;28;20035;-81
2023/10/15 09:45:24;;;;;;;4.05;0.40;;;10.40;99.00;;;;;;4960369;28;20450;-79
2023/10/15 09:47:57;;;;;;;3.28;0.40;;;10.40;98.50;;;;;;4977883;28;20561;-79
2023/10/15 09:50:38;;;;;;;2.90;0.40;;;10.50;97.90;;;;;;4977585;28;20113;-83
2023/10/15 09:53:12;;;;;;;3.13;0.60;;;10.50;98.00;;;;;;4977395;28;20039;-81
2023/10/15 09:55:40;;;;;;;1.67;0.30;;;10.60;97.80;;;;;;4977474;28;20027;-81
2023/10/15 09:58:06;;;;;;;2.10;0.30;;;10.60;97.40;;;;;;4977471;28;20118;-81
2023/10/15 10:03:48;;;;;;;3.50;0.40;;;10.60;97.00;;;;;;4975388;28;20190;-80
2023/10/15 10:06:42;;;;;;;1.92;0.50;;;10.60;96.30;;;;;;4976777;28;20137;-78
2023/10/15 10:09:46;;;;;;;3.58;0.30;;;10.50;95.60;;;;;;4977236;28;20031;-80
2023/10/15 10:12:36;;;;;;;3.83;0.33;;;10.50;95.60;;;;;;4959370;28;20042;-79
2023/10/15 10:15:22;;;;;;;3.13;0.43;;;10.60;96.10;;;;;;4977339;28;20057;-80
2023/10/15 10:17:50;;;;;;;1.90;0.40;;;10.70;96.30;;;;;;4977325;28;20106;-80
2023/10/15 10:20:19;;;;;;;2.05;0.50;;;11.00;97.00;;;;;;4976982;28;20482;-81
2023/10/15 10:22:59;;;;;;;3.92;0.47;;;11.50;98.20;;;;;;4976905;28;20035;-80
2023/10/15 10:25:45;;;;;;;3.58;0.40;;;12.40;99.20;;;;;;4976429;28;20031;-82
2023/10/15 10:28:16;;;;;;;2.33;0.40;;;13.20;98.30;;;;;;4977098;28;20146;-83
2023/10/15 10:30:57;;;;;;;3.38;0.40;;;13.40;96.60;;;;;;4976463;28;20542;-81
2023/10/15 10:33:42;;;;;;;1.88;0.40;;;13.60;95.90;;;;;;4976481;28;20550;-82
2023/10/15 10:36:16;;;;;;;2.70;0.43;;;14.30;96.10;;;;;;4974242;28;20124;-82
2023/10/15 10:38:42;;;;;;;2.22;0.30;;;15.10;95.30;;;;;;4968453;28;20498;-82
2023/10/15 10:41:14;;;;;;;1.00;0.30;;;15.80;95.00;;;;;;4976087;28;20079;-83
2023/10/15 10:43:42;;;;;;;1.27;0.30;;;16.40;94.10;;;;;;4975798;28;20110;-83
2023/10/15 10:46:19;;;;;;;2.45;0.30;;;16.90;93.50;;;;;;4965409;28;20035;-82
2023/10/15 10:49:01;;;;;;;1.05;0.20;;;17.20;91.90;;;;;;4942559;28;20034;-83
2023/10/15 10:51:35;;;;;;;1.92;0.40;;;17.60;91.00;;;;;;4958936;28;20042;-80
2023/10/15 10:54:03;;;;;;;2.65;0.20;;;18.20;89.20;;;;;;4995497;28;20030;-82
2023/10/15 10:56:41;;;;;;;1.35;0.30;;;18.60;87.90;;;;;;4978174;28;20034;-83
2023/10/15 10:59:07;;;;;;;2.80;0.22;;;19.20;83.70;;;;;;4977900;28;20035;-83
2023/10/15 11:01:37;;;;;;;3.95;0.40;;;19.60;80.20;;;;;;4995449;28;20093;-78
2023/10/15 11:04:03;;;;;;;0.70;0.20;;;19.90;74.60;;;;;;4995428;28;20042;-80
2023/10/15 11:06:29;;;;;;;2.13;0.40;;;20.20;73.70;;;;;;4995472;28;20046;-78
2023/10/15 11:08:55;;;;;;;1.52;0.40;;;20.50;73.20;;;;;;4995168;28;20041;-81
2023/10/15 11:11:21;;;;;;;2.00;0.30;;;20.80;71.60;;;;;;4996227;28;20045;-81
2023/10/15 11:13:49;;;;;;;1.50;0.30;;;21.10;69.40;;;;;;4983565;28;20041;-77
2023/10/15 11:16:16;;;;;;;2.55;0.22;;;21.40;67.20;;;;;;4958485;28;20038;-78
2023/10/15 11:18:45;;;;;;;1.52;0.40;;;21.50;63.80;;;;;;4958272;28;20443;-78
2023/10/15 11:21:11;;;;;;;3.85;1.08;;;21.60;61.80;;;;;;4975360;28;20043;-78
2023/10/15 11:23:38;;;;;;;2.35;0.50;;;21.60;59.80;;;;;;4975445;28;20460;-79
2023/10/15 11:26:04;;;;;;;2.78;0.40;;;21.60;58.70;;;;;;4975647;28;20082;-81
2023/10/15 11:28:30;;;;;;;2.17;0.30;;;21.60;58.10;;;;;;4975047;28;20058;-80
2023/10/15 11:30:56;;;;;;;3.58;0.40;;;21.70;59.00;;;;;;4975462;28;20057;-79
2023/10/15 11:33:23;;;;;;;2.60;0.35;;;21.60;57.30;;;;;;4975448;28;20061;-79
2023/10/15 11:35:48;;;;;;;3.00;0.40;;;21.40;57.10;;;;;;4975220;28;20034;-79
2023/10/15 11:38:14;;;;;;;3.65;0.47;;;21.40;57.20;;;;;;4957847;28;20030;-78
2023/10/15 11:40:41;;;;;;;2.78;0.40;;;21.50;56.50;;;;;;4975281;28;20035;-78
2023/10/15 11:43:15;;;;;;;2.63;0.45;;;21.60;56.30;;;;;;4975040;28;20035;-79
2023/10/15 11:45:41;;;;;;;2.80;0.47;;;21.80;55.70;;;;;;4974979;28;20131;-79
2023/10/15 11:48:11;;;;;;;2.65;0.40;;;22.00;55.70;;;;;;4975134;28;20063;-80
2023/10/15 11:50:40;;;;;;;4.43;0.60;;;22.10;54.10;;;;;;4957589;28;20035;-81
2023/10/15 11:53:18;;;;;;;2.28;0.40;;;21.90;53.80;;;;;;4975202;28;20491;-78
2023/10/15 11:55:47;;;;;;;3.20;0.68;;;21.30;53.00;;;;;;4956931;28;20035;-79
2023/10/15 11:58:16;;;;;;;3.88;0.65;;;20.50;53.60;;;;;;4974954;28;20039;-79
2023/10/15 12:00:42;;;;;;;3.67;0.82;;;20.10;55.30;;;;;;4957634;28;20030;-78
2023/10/15 12:03:09;;;;;;;3.85;0.40;;;19.70;54.50;;;;;;4957312;28;20042;-78
2023/10/15 12:05:35;;;;;;;3.92;0.63;;;19.10;54.70;;;;;;4974963;28;20122;-78
2023/10/15 12:08:03;;;;;;;2.05;0.45;;;18.90;56.00;;;;;;4974752;28;20042;-77
2023/10/15 12:10:29;;;;;;;2.85;0.70;;;19.10;56.60;;;;;;4974657;28;20035;-78
2023/10/15 12:12:55;;;;;;;4.43;0.60;;;19.60;55.10;;;;;;4957068;28;20128;-78
2023/10/15 12:15:20;;;;;;;2.67;0.60;;;19.80;53.40;;;;;;4974967;28;20045;-80
2023/10/15 12:17:46;;;;;;;2.00;0.40;;;20.00;53.40;;;;;;4957053;28;20446;-79
2023/10/15 12:20:12;;;;;;;2.72;0.47;;;20.50;54.30;;;;;;4974290;28;20034;-78
2023/10/15 12:22:38;;;;;;;3.05;0.55;;;20.80;53.60;;;;;;4974673;28;20099;-79
2023/10/15 12:25:06;;;;;;;3.03;0.50;;;21.10;53.20;;;;;;4974636;28;20031;-79
2023/10/15 12:27:32;;;;;;;2.90;0.40;;;21.40;52.70;;;;;;4974252;28;20133;-79
2023/10/15 12:30:03;;;;;;;3.47;0.28;;;21.60;53.00;;;;;;4974235;28;20106;-80
2023/10/15 12:32:28;;;;;;;1.83;0.30;;;21.80;52.20;;;;;;4957091;28;20043;-78
2023/10/15 12:34:54;;;;;;;2.30;0.40;;;22.10;51.90;;;;;;4974075;28;20039;-78
2023/10/15 12:37:23;;;;;;;2.20;0.28;;;22.30;52.00;;;;;;4974417;28;20066;-78
2023/10/15 12:39:51;;;;;;;3.50;0.30;;;22.50;51.40;;;;;;4974170;28;20027;-78
2023/10/15 12:42:18;;;;;;;2.55;0.30;;;22.60;50.40;;;;;;4974360;28;20065;-80
2023/10/15 12:44:46;;;;;;;3.25;0.30;;;22.70;50.50;;;;;;4974277;28;20063;-78
2023/10/15 12:47:12;;;;;;;3.10;0.40;;;22.80;49.80;;;;;;4974611;28;20053;-77
2023/10/15 12:49:39;;;;;;;1.80;0.30;;;22.90;49.30;;;;;;4974746;28;20034;-78
2023/10/15 12:52:08;;;;;;;1.52;0.20;;;23.00;49.70;;;;;;4957227;28;20038;-80
2023/10/15 12:54:34;;;;;;;2.80;0.40;;;23.20;49.40;;;;;;4974541;28;20031;-79
2023/10/15 12:57:00;;;;;;;1.58;0.30;;;23.40;48.50;;;;;;4973609;28;20135;-78
2023/10/15 12:59:25;;;;;;;2.63;0.50;;;23.50;48.00;;;;;;4944140;28;20086;-79
2023/10/15 13:01:51;;;;;;;1.20;0.28;;;23.50;47.30;;;;;;4954865;29;20050;-81
2023/10/15 13:04:17;;;;;;;2.00;0.32;;;23.60;47.60;;;;;;4954043;29;20538;-78
2023/10/15 13:06:44;;;;;;;1.50;0.32;;;23.60;46.40;;;;;;4939846;29;20476;-80
2023/10/15 13:09:09;;;;;;;1.95;0.40;;;23.30;46.30;;;;;;4958806;29;20499;-80
2023/10/15 13:11:38;;;;;;;1.65;0.30;;;22.60;46.10;;;;;;4958868;29;20044;-81
2023/10/15 13:14:07;;;;;;;2.85;0.40;;;22.20;47.60;;;;;;4958675;29;20039;-78
2023/10/15 13:16:33;;;;;;;2.92;0.50;;;22.10;48.20;;;;;;4958522;29;20507;-78
2023/10/15 13:18:59;;;;;;;3.22;0.40;;;22.30;48.50;;;;;;4958363;29;20039;-78